createdAt,value
2022-09-05T00:02:29.024Z,4.72
2022-09-05T00:05:29.293Z,4.38
2022-09-05T00:08:23.257Z,4.72
2022-09-05T00:11:41.055Z,4.40
2022-09-05T00:15:15.956Z,4.38
2022-09-05T00:24:18.581Z,4.82
2022-09-05T00:24:26.079Z,4.32
2022-09-05T00:25:07.247Z,4.47
2022-09-05T00:28:25.128Z,5.18
2022-09-05T00:31:54.134Z,5.35
2022-09-05T00:34:58.265Z,4.82
2022-09-05T00:37:49.288Z,5.15
2022-09-05T00:40:39.747Z,4.90
2022-09-05T00:43:30.217Z,5.10
2022-09-05T00:46:19.810Z,4.70
2022-09-05T00:49:18.614Z,5.28
2022-09-05T00:52:11.239Z,5.00
2022-09-05T00:55:11.865Z,5.28
2022-09-05T00:58:12.227Z,5.60
2022-09-05T01:00:59.790Z,5.20
2022-09-05T01:03:57.785Z,5.20
2022-09-05T01:07:04.760Z,5.07
2022-09-05T01:10:05.042Z,5.97
2022-09-05T01:13:12.980Z,5.45
2022-09-05T01:16:07.514Z,5.32
2022-09-05T01:19:15.773Z,5.50
2022-09-05T01:22:29.386Z,5.75
2022-09-05T01:25:40.432Z,5.72
2022-09-05T01:29:13.614Z,5.68
2022-09-05T01:32:06.451Z,5.78
2022-09-05T01:35:25.782Z,6.13
2022-09-05T01:38:19.147Z,5.35
2022-09-05T01:41:21.739Z,5.72
2022-09-05T01:44:20.502Z,5.43
2022-09-05T01:47:30.861Z,6.05
2022-09-05T01:50:35.246Z,5.47
2022-09-05T01:53:32.530Z,5.53
2022-09-05T01:56:36.702Z,5.70
2022-09-05T01:59:34.887Z,5.85
2022-09-05T02:02:39.126Z,6.05
2022-09-05T02:05:57.263Z,6.20
2022-09-05T02:09:08.674Z,5.85
2022-09-05T02:11:59.426Z,6.07
2022-09-05T02:14:55.698Z,6.47
2022-09-05T02:17:51.824Z,5.85
2022-09-05T02:20:46.747Z,5.97
2022-09-05T02:23:44.834Z,6.55
2022-09-05T02:26:37.085Z,6.07
2022-09-05T02:29:30.086Z,5.90
2022-09-05T02:32:22.195Z,6.00
2022-09-05T02:35:17.674Z,5.97
2022-09-05T02:39:28.340Z,6.00
2022-09-05T02:45:07.953Z,6.00
2022-09-05T02:45:11.901Z,6.22
2022-09-05T02:47:55.670Z,6.32
2022-09-05T02:55:16.296Z,6.10
2022-09-05T02:57:32.670Z,6.30
2022-09-05T02:58:07.089Z,6.00
2022-09-05T03:00:53.229Z,6.25
2022-09-05T03:03:49.894Z,6.45
2022-09-05T03:06:45.042Z,6.53
2022-09-05T03:09:44.098Z,5.97
2022-09-05T03:13:06.977Z,7.07
2022-09-05T03:16:18.030Z,6.65
2022-09-05T03:19:46.724Z,6.40
2022-09-05T03:23:28.167Z,6.68
2022-09-05T03:26:38.677Z,6.45
2022-09-05T03:29:58.842Z,6.40
2022-09-05T03:33:17.409Z,6.65
2022-09-05T03:36:46.785Z,6.47
2022-09-05T03:40:15.225Z,6.43
2022-09-05T03:43:46.938Z,6.37
2022-09-05T03:46:49.046Z,6.70
2022-09-05T03:53:11.467Z,6.67
2022-09-05T03:57:17.061Z,6.50
2022-09-05T03:57:24.721Z,6.65
2022-09-05T04:00:09.104Z,6.38
2022-09-05T04:08:08.030Z,6.53
2022-09-05T04:08:19.114Z,6.00
2022-09-05T04:09:50.426Z,7.15
2022-09-05T04:12:47.306Z,6.85
2022-09-05T04:15:39.721Z,5.75
2022-09-05T04:18:34.294Z,6.82
2022-09-05T04:21:25.889Z,6.50
2022-09-05T04:24:18.995Z,6.35
2022-09-05T04:27:30.858Z,6.17
2022-09-05T04:30:39.311Z,6.65
2022-09-05T04:33:37.341Z,5.97
2022-09-05T04:36:28.990Z,6.13
2022-09-05T04:39:26.556Z,6.90
2022-09-05T04:42:21.238Z,6.47
2022-09-05T04:45:24.042Z,6.60
2022-09-05T04:48:15.773Z,6.20
2022-09-05T04:51:08.441Z,6.40
2022-09-05T04:54:29.991Z,5.83
2022-09-05T04:57:23.905Z,6.10
2022-09-05T05:06:01.008Z,5.80
2022-09-05T05:06:17.548Z,5.38
2022-09-05T05:06:45.877Z,5.97
2022-09-05T05:09:39.161Z,5.65
2022-09-05T05:17:53.971Z,6.03
2022-09-05T05:18:15.463Z,6.13
2022-09-05T05:19:18.689Z,5.82
2022-09-05T05:22:13.988Z,5.70
2022-09-05T05:25:02.614Z,5.50
2022-09-05T05:28:01.870Z,5.07
2022-09-05T05:31:13.902Z,5.70
2022-09-05T05:34:03.806Z,6.00
2022-09-05T05:37:01.412Z,5.28
2022-09-05T05:39:51.059Z,5.03
2022-09-05T05:42:40.705Z,5.70
2022-09-05T05:45:30.192Z,5.93
2022-09-05T05:48:33.280Z,5.43
2022-09-05T05:51:53.361Z,6.00
2022-09-05T05:54:49.780Z,6.03
2022-09-05T05:58:02.403Z,6.13
2022-09-05T06:01:38.100Z,6.25
2022-09-05T06:04:52.455Z,5.93
2022-09-05T06:10:14.390Z,5.80
2022-09-05T06:14:52.657Z,5.80
2022-09-05T06:15:27.551Z,5.95
2022-09-05T06:18:45.731Z,6.50
2022-09-05T06:22:14.125Z,5.72
2022-09-05T06:25:39.069Z,6.25
2022-09-05T06:28:37.711Z,6.15
2022-09-05T06:31:55.038Z,6.47
2022-09-05T06:35:04.125Z,6.15
2022-09-05T06:38:12.808Z,6.00
2022-09-05T06:41:19.448Z,6.32
2022-09-05T06:44:30.971Z,5.63
2022-09-05T06:47:23.963Z,6.15
2022-09-05T06:50:27.522Z,6.50
2022-09-05T06:53:45.821Z,6.22
2022-09-05T06:56:54.547Z,6.45
2022-09-05T07:00:10.302Z,6.38
2022-09-05T07:03:26.657Z,6.00
2022-09-05T07:06:24.914Z,5.85
2022-09-05T07:09:42.727Z,6.30
2022-09-05T07:12:33.025Z,5.78
2022-09-05T07:15:34.406Z,6.82
2022-09-05T07:18:27.255Z,6.63
2022-09-05T07:24:53.361Z,7.45
2022-09-05T07:27:46.827Z,7.20
2022-09-05T07:30:50.790Z,6.53
2022-09-05T07:33:40.021Z,6.68
2022-09-05T07:36:37.554Z,7.47
2022-09-05T07:39:29.519Z,7.13
2022-09-05T07:42:18.267Z,6.75
2022-09-05T07:45:10.774Z,7.50
2022-09-05T07:48:02.418Z,7.65
2022-09-05T07:55:54.686Z,6.70
2022-09-05T07:56:50.755Z,7.05
2022-09-05T07:57:27.077Z,7.55
2022-09-05T08:00:26.148Z,6.93
2022-09-05T08:03:16.999Z,6.32
2022-09-05T08:06:09.029Z,6.43
2022-09-05T08:09:21.524Z,6.65
2022-09-05T08:12:16.179Z,6.47
2022-09-05T08:15:10.177Z,6.45
2022-09-05T08:18:11.093Z,7.18
2022-09-05T08:21:05.149Z,6.75
2022-09-05T08:23:57.831Z,6.20
2022-09-05T08:26:47.708Z,7.03
2022-09-05T08:29:39.334Z,6.60
2022-09-05T08:32:38.832Z,6.07
2022-09-05T08:35:31.874Z,6.60
2022-09-05T08:38:18.745Z,6.47
2022-09-05T08:41:14.183Z,6.95
2022-09-05T08:46:42.972Z,6.88
2022-09-05T08:47:27.807Z,6.30
2022-09-05T08:51:09.030Z,6.68
2022-09-05T08:54:10.101Z,6.82
2022-09-05T08:57:02.940Z,6.45
2022-09-05T09:00:18.919Z,5.97
2022-09-05T09:03:14.548Z,6.57
2022-09-05T09:06:35.311Z,6.20
2022-09-05T09:09:35.165Z,6.35
2022-09-05T09:13:09.461Z,5.78
2022-09-05T09:16:06.393Z,6.82
2022-09-05T09:19:10.098Z,6.90
2022-09-05T09:22:10.132Z,5.78
2022-09-05T09:25:15.288Z,5.90
2022-09-05T09:28:47.918Z,6.07
2022-09-05T09:31:44.095Z,6.13
2022-09-05T09:34:53.373Z,6.72
2022-09-05T09:38:03.662Z,6.35
2022-09-05T09:41:26.843Z,6.38
2022-09-05T09:44:58.040Z,6.15
2022-09-05T09:48:02.905Z,6.53
2022-09-05T09:51:05.660Z,6.65
2022-09-05T09:54:08.529Z,6.45
2022-09-05T09:57:23.113Z,6.10
2022-09-05T10:00:14.694Z,6.68
2022-09-05T10:08:34.578Z,6.25
2022-09-05T10:10:45.322Z,6.15
2022-09-05T10:14:49.391Z,6.32
2022-09-05T10:18:12.911Z,5.85
2022-09-05T10:21:17.825Z,5.53
2022-09-05T10:24:30.861Z,5.80
2022-09-05T10:27:38.769Z,6.32
2022-09-05T10:32:31.253Z,5.72
2022-09-05T10:35:13.750Z,6.18
2022-09-05T10:37:29.326Z,5.40
2022-09-05T10:40:20.494Z,5.35
2022-09-05T10:43:14.874Z,5.68
2022-09-05T10:46:14.665Z,5.30
2022-09-05T10:49:14.402Z,5.60
2022-09-05T10:52:18.733Z,6.22
2022-09-05T10:55:17.290Z,6.13
2022-09-05T10:58:16.722Z,5.85
2022-09-05T11:02:29.396Z,5.65
2022-09-05T11:04:50.185Z,5.22
2022-09-05T11:07:42.086Z,5.70
2022-09-05T11:10:34.773Z,5.55
2022-09-05T11:13:39.389Z,5.63
2022-09-05T11:16:35.113Z,5.95
2022-09-05T11:19:31.005Z,5.47
2022-09-05T11:22:23.961Z,5.88
2022-09-05T11:25:18.771Z,5.43
2022-09-05T11:28:17.026Z,5.20
2022-09-05T11:31:12.335Z,5.50
2022-09-05T11:39:47.612Z,4.93
2022-09-05T11:40:06.457Z,5.13
2022-09-05T11:41:58.194Z,4.95
2022-09-05T11:45:05.681Z,4.97
2022-09-05T11:48:34.842Z,5.05
2022-09-05T11:52:08.505Z,5.40
2022-09-05T11:55:20.960Z,5.10
2022-09-05T11:58:45.284Z,5.38
2022-09-05T12:01:44.057Z,4.63
2022-09-05T12:05:51.165Z,5.43
2022-09-05T12:08:04.274Z,5.25
2022-09-05T12:11:03.572Z,5.10
2022-09-05T12:14:01.194Z,5.03
2022-09-05T12:17:34.864Z,5.45
2022-09-05T12:20:33.674Z,4.88
2022-09-05T12:24:11.589Z,5.28
2022-09-05T12:27:38.930Z,4.82
2022-09-05T12:30:07.873Z,5.25
2022-09-05T12:36:03.555Z,5.00
2022-09-05T12:40:54.589Z,4.95
2022-09-05T12:40:57.746Z,5.03
2022-09-05T12:42:55.991Z,4.93
2022-09-05T12:48:53.883Z,4.47
2022-09-05T12:51:47.860Z,5.13
2022-09-05T12:54:42.711Z,5.20
2022-09-05T13:00:42.505Z,4.55
2022-09-05T13:03:11.485Z,4.97
2022-09-05T13:04:16.991Z,5.00
2022-09-05T13:07:09.430Z,4.75
2022-09-05T13:11:42.780Z,4.90
2022-09-05T13:14:54.320Z,5.75
2022-09-05T13:16:23.164Z,4.47
2022-09-05T13:19:28.245Z,4.75
2022-09-05T13:22:20.220Z,4.85
2022-09-05T13:25:11.510Z,4.60
2022-09-05T13:28:03.714Z,4.60
2022-09-05T13:35:11.024Z,4.60
2022-09-05T13:37:59.035Z,4.88
2022-09-05T13:38:11.256Z,4.43
2022-09-05T13:40:32.430Z,4.20
2022-09-05T13:43:26.426Z,7.32
2022-09-05T13:46:20.053Z,4.30
2022-09-05T13:49:25.271Z,4.70
2022-09-05T13:52:28.965Z,4.38
2022-09-05T13:55:23.452Z,4.22
2022-09-05T13:58:16.144Z,4.25
2022-09-05T14:01:34.928Z,4.35
2022-09-05T14:05:05.385Z,4.50
2022-09-05T14:08:24.322Z,4.13
2022-09-05T14:11:45.263Z,4.40
2022-09-05T14:17:59.881Z,4.38
2022-09-05T14:21:08.715Z,4.25
2022-09-05T14:24:05.718Z,4.90
2022-09-05T14:27:11.961Z,4.55
2022-09-05T14:29:58.604Z,4.40
2022-09-05T14:37:46.366Z,4.47
2022-09-05T14:38:00.467Z,4.30
2022-09-05T14:40:24.177Z,4.47
2022-09-05T14:43:42.781Z,4.60
2022-09-05T14:46:45.155Z,5.00
2022-09-05T14:50:03.895Z,4.93
2022-09-05T14:57:18.927Z,3.90
2022-09-05T15:02:42.068Z,4.10
2022-09-05T15:02:57.548Z,4.22
2022-09-05T15:05:44.670Z,4.22
2022-09-05T15:10:23.924Z,4.05
2022-09-05T15:12:24.452Z,4.20
2022-09-05T15:15:00.430Z,3.90
2022-09-05T15:17:49.578Z,4.30
2022-09-05T15:20:41.848Z,4.50
2022-09-05T15:23:32.535Z,4.60
2022-09-05T15:26:25.861Z,4.32
2022-09-05T15:29:15.339Z,4.70
2022-09-05T15:32:14.973Z,4.32
2022-09-05T15:35:01.494Z,4.20
2022-09-05T15:37:50.049Z,4.13
2022-09-05T15:40:36.324Z,4.45
2022-09-05T15:43:24.901Z,4.70
2022-09-05T15:46:13.599Z,4.25
2022-09-05T15:49:00.198Z,5.18
2022-09-05T15:51:50.677Z,5.00
2022-09-05T15:54:39.962Z,4.50
2022-09-05T15:57:31.389Z,4.50
2022-09-05T16:00:51.311Z,4.20
2022-09-05T16:04:36.444Z,4.60
2022-09-05T16:10:35.965Z,4.10
2022-09-05T16:10:45.591Z,3.90
2022-09-05T16:13:13.671Z,4.70
2022-09-05T16:20:31.598Z,4.43
2022-09-05T16:23:17.634Z,4.30
2022-09-05T16:23:30.680Z,4.60
2022-09-05T16:25:34.489Z,4.43
2022-09-05T16:28:23.794Z,4.97
2022-09-05T16:31:15.657Z,4.68
2022-09-05T16:34:11.785Z,4.72
2022-09-05T16:37:09.326Z,4.90
2022-09-05T16:40:04.127Z,4.63
2022-09-05T16:42:53.963Z,5.07
2022-09-05T16:45:47.354Z,4.78
2022-09-05T16:48:45.441Z,4.85
2022-09-05T16:51:37.915Z,4.88
2022-09-05T16:54:31.801Z,4.80
2022-09-05T16:57:23.237Z,5.60
2022-09-05T17:00:11.310Z,5.50
2022-09-05T17:03:17.718Z,5.00
2022-09-05T17:06:26.239Z,6.07
2022-09-05T17:09:22.928Z,5.43
2022-09-05T17:12:15.867Z,5.63
2022-09-05T17:15:11.438Z,5.75
2022-09-05T17:18:21.228Z,5.85
2022-09-05T17:21:12.800Z,5.95
2022-09-05T17:29:15.790Z,5.60
2022-09-05T17:29:25.040Z,5.63
2022-09-05T17:34:38.521Z,5.90
2022-09-05T17:37:49.081Z,5.60
2022-09-05T17:41:07.658Z,5.82
2022-09-05T17:44:07.330Z,6.30
2022-09-05T17:47:06.757Z,5.50
2022-09-05T17:50:12.890Z,6.05
2022-09-05T17:53:25.706Z,5.82
2022-09-05T17:56:27.847Z,6.03
2022-09-05T17:59:28.788Z,5.90
2022-09-05T18:02:33.277Z,5.78
2022-09-05T18:06:01.031Z,6.05
2022-09-05T18:08:52.930Z,5.68
2022-09-05T18:12:04.473Z,6.10
2022-09-05T18:15:04.939Z,6.13
2022-09-05T18:18:05.211Z,6.28
2022-09-05T18:21:15.998Z,6.75
2022-09-05T18:24:12.535Z,6.60
2022-09-05T18:27:12.980Z,6.95
2022-09-05T18:30:12.915Z,6.20
2022-09-05T18:33:53.418Z,6.60
2022-09-05T18:36:35.765Z,6.90
2022-09-05T18:39:41.268Z,6.80
2022-09-05T18:42:33.858Z,7.53
2022-09-05T18:45:28.751Z,7.50
2022-09-05T18:48:26.535Z,7.07
2022-09-05T18:51:22.781Z,6.72
2022-09-05T18:54:20.209Z,7.15
2022-09-05T18:57:26.487Z,7.53
2022-09-05T19:00:35.203Z,7.47
2022-09-05T19:03:34.135Z,7.00
2022-09-05T19:06:35.966Z,7.57
2022-09-05T19:09:29.976Z,7.75
2022-09-05T19:12:33.303Z,7.35
2022-09-05T19:15:24.706Z,7.55
2022-09-05T19:18:26.890Z,7.53
2022-09-05T19:21:19.234Z,7.82
2022-09-05T19:24:10.620Z,7.82
2022-09-05T19:26:59.812Z,8.50
2022-09-05T19:36:48.936Z,8.40
2022-09-05T19:37:13.091Z,7.82
2022-09-05T19:37:14.646Z,7.68
2022-09-05T19:46:24.793Z,7.80
2022-09-05T19:47:42.239Z,8.10
2022-09-05T19:47:43.039Z,8.02
2022-09-05T19:49:05.003Z,7.80
2022-09-05T19:51:52.894Z,7.63
2022-09-05T19:54:42.941Z,8.43
2022-09-05T19:57:30.635Z,8.10
2022-09-05T20:00:22.749Z,7.95
2022-09-05T20:03:09.630Z,8.38
2022-09-05T20:05:55.927Z,7.90
2022-09-05T20:08:43.913Z,8.40
2022-09-05T20:11:39.973Z,8.30
2022-09-05T20:14:36.668Z,8.00
2022-09-05T20:17:26.673Z,8.38
2022-09-05T20:20:16.387Z,8.25
2022-09-05T20:23:06.174Z,8.35
2022-09-05T20:25:56.005Z,8.65
2022-09-05T20:28:43.241Z,8.15
2022-09-05T20:31:33.032Z,8.98
2022-09-05T20:36:06.870Z,8.15
2022-09-05T20:43:15.897Z,8.65
2022-09-05T20:43:23.238Z,8.75
2022-09-05T20:43:53.661Z,7.85
2022-09-05T20:50:37.299Z,8.15
2022-09-05T20:54:14.408Z,8.73
2022-09-05T20:54:20.538Z,8.30
2022-09-05T20:56:22.409Z,8.85
2022-09-05T20:59:11.335Z,8.63
2022-09-05T21:02:03.062Z,8.50
2022-09-05T21:05:10.102Z,7.60
2022-09-05T21:08:24.695Z,8.57
2022-09-05T21:11:13.474Z,8.20
2022-09-05T21:14:02.973Z,7.32
2022-09-05T21:17:00.470Z,7.88
2022-09-05T21:19:53.240Z,7.95
2022-09-05T21:22:43.626Z,7.63
2022-09-05T21:25:41.433Z,8.43
2022-09-05T21:28:37.281Z,7.88
2022-09-05T21:31:26.222Z,8.73
2022-09-05T21:34:22.096Z,8.65
2022-09-05T21:37:12.556Z,8.15
2022-09-05T21:40:01.193Z,7.63
2022-09-05T21:47:29.440Z,7.80
2022-09-05T21:47:42.151Z,7.78
2022-09-05T21:49:03.215Z,8.30
2022-09-05T21:51:53.122Z,7.65
2022-09-05T21:59:17.851Z,7.63
2022-09-05T21:59:19.092Z,7.53
2022-09-05T22:00:56.041Z,8.10
2022-09-05T22:03:43.690Z,7.72
2022-09-05T22:06:31.852Z,8.02
2022-09-05T22:09:20.283Z,7.45
2022-09-05T22:12:14.589Z,8.63
2022-09-05T22:15:28.070Z,8.75
2022-09-05T22:18:18.279Z,7.68
2022-09-05T22:21:32.853Z,8.30
2022-09-05T22:24:14.200Z,7.15
2022-09-05T22:27:11.101Z,8.07
2022-09-05T22:29:59.813Z,8.27
2022-09-05T22:32:46.249Z,7.25
2022-09-05T22:35:33.089Z,8.32
2022-09-05T22:38:21.305Z,8.57
2022-09-05T22:41:07.966Z,8.20
2022-09-05T22:43:55.800Z,8.18
2022-09-05T22:46:42.243Z,8.60
2022-09-05T22:49:28.653Z,8.20
2022-09-05T22:52:15.189Z,7.72
2022-09-05T22:55:01.820Z,7.78
2022-09-05T22:57:48.085Z,8.25
2022-09-05T23:00:36.369Z,7.95
2022-09-05T23:03:23.082Z,7.00
2022-09-05T23:06:11.089Z,7.63
2022-09-05T23:08:57.725Z,7.45
2022-09-05T23:11:44.378Z,7.50
2022-09-05T23:14:30.840Z,7.40
2022-09-05T23:17:18.538Z,7.90
2022-09-05T23:20:05.666Z,7.85
2022-09-05T23:22:52.551Z,8.00
2022-09-05T23:25:39.051Z,8.35
2022-09-05T23:28:25.956Z,7.30
2022-09-05T23:31:13.084Z,7.53
2022-09-05T23:34:00.790Z,7.63
2022-09-05T23:36:47.111Z,7.20
2022-09-05T23:39:33.636Z,7.88
2022-09-05T23:42:20.473Z,7.70
2022-09-05T23:45:08.059Z,7.80
2022-09-05T23:47:54.870Z,7.53
2022-09-05T23:50:42.649Z,7.82
2022-09-05T23:53:29.082Z,7.85
2022-09-05T23:56:15.693Z,7.80
2022-09-05T23:59:01.872Z,7.32
